sensor_id;sensor_type;location;lat;lon;timestamp;P1;durP1;ratioP1;P2;durP2;ratioP2
67902;SDS011;54708;43.612;1.568;2024-01-15T00:01:02;24.20;;;15.15;;
67902;SDS011;54708;43.612;1.568;2024-01-15T00:03:28;25.13;;;17.00;;
67902;SDS011;54708;43.612;1.568;2024-01-15T00:05:53;23.38;;;15.70;;
67902;SDS011;54708;43.612;1.568;2024-01-15T00:08:19;26.10;;;15.98;;
67902;SDS011;54708;43.612;1.568;2024-01-15T00:10:44;23.67;;;15.90;;
67902;SDS011;54708;43.612;1.568;2024-01-15T00:13:10;18.30;;;14.45;;
67902;SDS011;54708;43.612;1.568;2024-01-15T00:15:35;23.35;;;15.00;;
67902;SDS011;54708;43.612;1.568;2024-01-15T00:18:00;21.42;;;13.75;;
67902;SDS011;54708;43.612;1.568;2024-01-15T00:20:26;20.73;;;13.00;;
67902;SDS011;54708;43.612;1.568;2024-01-15T00:22:51;21.52;;;12.90;;
67902;SDS011;54708;43.612;1.568;2024-01-15T00:25:16;20.70;;;13.02;;
67902;SDS011;54708;43.612;1.568;2024-01-15T00:27:42;24.60;;;12.52;;
67902;SDS011;54708;43.612;1.568;2024-01-15T00:30:08;20.73;;;12.05;;
67902;SDS011;54708;43.612;1.568;2024-01-15T00:32:34;20.30;;;11.88;;
67902;SDS011;54708;43.612;1.568;2024-01-15T00:34:59;21.05;;;13.32;;
67902;SDS011;54708;43.612;1.568;2024-01-15T00:37:25;17.88;;;12.68;;
67902;SDS011;54708;43.612;1.568;2024-01-15T00:39:50;20.30;;;13.32;;
67902;SDS011;54708;43.612;1.568;2024-01-15T00:42:15;19.92;;;12.35;;
67902;SDS011;54708;43.612;1.568;2024-01-15T00:44:41;19.40;;;12.43;;
67902;SDS011;54708;43.612;1.568;2024-01-15T00:47:07;22.13;;;14.40;;
67902;SDS011;54708;43.612;1.568;2024-01-15T00:49:32;18.98;;;12.23;;
67902;SDS011;54708;43.612;1.568;2024-01-15T00:51:58;24.77;;;12.93;;
67902;SDS011;54708;43.612;1.568;2024-01-15T00:54:23;25.13;;;13.35;;
67902;SDS011;54708;43.612;1.568;2024-01-15T00:56:48;21.40;;;12.48;;
67902;SDS011;54708;43.612;1.568;2024-01-15T00:59:14;26.95;;;13.05;;
67902;SDS011;54708;43.612;1.568;2024-01-15T01:01:40;23.48;;;14.30;;
67902;SDS011;54708;43.612;1.568;2024-01-15T01:04:08;24.52;;;16.17;;
67902;SDS011;54708;43.612;1.568;2024-01-15T01:06:36;21.67;;;13.98;;
67902;SDS011;54708;43.612;1.568;2024-01-15T01:09:02;23.15;;;13.40;;
67902;SDS011;54708;43.612;1.568;2024-01-15T01:11:27;32.83;;;13.95;;
67902;SDS011;54708;43.612;1.568;2024-01-15T01:13:52;22.40;;;13.52;;
67902;SDS011;54708;43.612;1.568;2024-01-15T01:16:18;23.13;;;13.23;;
67902;SDS011;54708;43.612;1.568;2024-01-15T01:18:43;22.00;;;11.88;;
67902;SDS011;54708;43.612;1.568;2024-01-15T01:21:08;18.77;;;12.20;;
67902;SDS011;54708;43.612;1.568;2024-01-15T01:23:34;23.27;;;12.20;;
67902;SDS011;54708;43.612;1.568;2024-01-15T01:25:59;19.50;;;12.85;;
67902;SDS011;54708;43.612;1.568;2024-01-15T01:28:24;20.95;;;12.93;;
67902;SDS011;54708;43.612;1.568;2024-01-15T01:30:50;27.10;;;12.80;;
67902;SDS011;54708;43.612;1.568;2024-01-15T01:33:15;18.25;;;12.85;;
67902;SDS011;54708;43.612;1.568;2024-01-15T01:35:40;19.98;;;12.93;;
67902;SDS011;54708;43.612;1.568;2024-01-15T01:38:06;22.02;;;12.90;;
67902;SDS011;54708;43.612;1.568;2024-01-15T01:40:31;19.75;;;12.88;;
67902;SDS011;54708;43.612;1.568;2024-01-15T01:42:57;20.35;;;12.98;;
67902;SDS011;54708;43.612;1.568;2024-01-15T01:45:22;19.15;;;12.98;;
67902;SDS011;54708;43.612;1.568;2024-01-15T01:47:47;22.20;;;12.13;;
67902;SDS011;54708;43.612;1.568;2024-01-15T01:50:13;23.67;;;12.77;;
67902;SDS011;54708;43.612;1.568;2024-01-15T01:52:39;25.58;;;13.23;;
67902;SDS011;54708;43.612;1.568;2024-01-15T01:55:05;23.48;;;14.40;;
67902;SDS011;54708;43.612;1.568;2024-01-15T01:57:31;27.48;;;18.48;;
67902;SDS011;54708;43.612;1.568;2024-01-15T01:59:59;28.70;;;19.33;;
67902;SDS011;54708;43.612;1.568;2024-01-15T02:02:24;24.65;;;16.35;;
67902;SDS011;54708;43.612;1.568;2024-01-15T02:04:50;34.72;;;17.05;;
67902;SDS011;54708;43.612;1.568;2024-01-15T02:07:16;25.10;;;15.27;;
67902;SDS011;54708;43.612;1.568;2024-01-15T02:09:42;23.75;;;15.93;;
67902;SDS011;54708;43.612;1.568;2024-01-15T02:12:09;28.85;;;15.63;;
67902;SDS011;54708;43.612;1.568;2024-01-15T02:14:34;29.10;;;15.55;;
67902;SDS011;54708;43.612;1.568;2024-01-15T02:17:00;22.30;;;14.15;;
67902;SDS011;54708;43.612;1.568;2024-01-15T02:19:25;25.92;;;13.23;;
67902;SDS011;54708;43.612;1.568;2024-01-15T02:21:50;29.75;;;13.75;;
67902;SDS011;54708;43.612;1.568;2024-01-15T02:24:16;23.27;;;13.93;;
67902;SDS011;54708;43.612;1.568;2024-01-15T02:26:41;23.40;;;14.23;;
67902;SDS011;54708;43.612;1.568;2024-01-15T02:29:07;27.45;;;14.63;;
67902;SDS011;54708;43.612;1.568;2024-01-15T02:31:36;23.92;;;13.52;;
67902;SDS011;54708;43.612;1.568;2024-01-15T02:34:01;25.38;;;14.40;;
67902;SDS011;54708;43.612;1.568;2024-01-15T02:36:27;24.58;;;14.95;;
67902;SDS011;54708;43.612;1.568;2024-01-15T02:38:52;23.35;;;14.60;;
67902;SDS011;54708;43.612;1.568;2024-01-15T02:41:18;20.58;;;12.80;;
67902;SDS011;54708;43.612;1.568;2024-01-15T02:43:43;21.00;;;13.95;;
67902;SDS011;54708;43.612;1.568;2024-01-15T02:46:09;27.23;;;14.75;;
67902;SDS011;54708;43.612;1.568;2024-01-15T02:48:34;21.20;;;12.77;;
67902;SDS011;54708;43.612;1.568;2024-01-15T02:51:02;23.85;;;13.60;;
67902;SDS011;54708;43.612;1.568;2024-01-15T02:53:28;21.65;;;14.07;;
67902;SDS011;54708;43.612;1.568;2024-01-15T02:55:53;19.77;;;13.35;;
67902;SDS011;54708;43.612;1.568;2024-01-15T02:58:19;24.00;;;14.32;;
67902;SDS011;54708;43.612;1.568;2024-01-15T03:00:44;22.48;;;13.45;;
67902;SDS011;54708;43.612;1.568;2024-01-15T03:03:11;21.67;;;13.75;;
67902;SDS011;54708;43.612;1.568;2024-01-15T03:05:36;25.05;;;14.15;;
67902;SDS011;54708;43.612;1.568;2024-01-15T03:08:02;19.85;;;14.35;;
67902;SDS011;54708;43.612;1.568;2024-01-15T03:10:27;22.95;;;14.50;;
67902;SDS011;54708;43.612;1.568;2024-01-15T03:12:52;26.58;;;14.38;;
67902;SDS011;54708;43.612;1.568;2024-01-15T03:15:18;23.45;;;14.48;;
67902;SDS011;54708;43.612;1.568;2024-01-15T03:17:43;23.17;;;14.07;;
67902;SDS011;54708;43.612;1.568;2024-01-15T03:20:09;22.02;;;13.50;;
67902;SDS011;54708;43.612;1.568;2024-01-15T03:22:34;25.80;;;15.45;;
67902;SDS011;54708;43.612;1.568;2024-01-15T03:25:00;23.77;;;15.10;;
67902;SDS011;54708;43.612;1.568;2024-01-15T03:27:25;28.13;;;15.13;;
67902;SDS011;54708;43.612;1.568;2024-01-15T03:29:51;26.83;;;14.80;;
67902;SDS011;54708;43.612;1.568;2024-01-15T03:32:16;24.67;;;14.05;;
67902;SDS011;54708;43.612;1.568;2024-01-15T03:34:41;26.90;;;15.45;;
67902;SDS011;54708;43.612;1.568;2024-01-15T03:37:07;24.77;;;14.48;;
67902;SDS011;54708;43.612;1.568;2024-01-15T03:39:32;23.35;;;14.95;;
67902;SDS011;54708;43.612;1.568;2024-01-15T03:41:58;23.23;;;14.68;;
67902;SDS011;54708;43.612;1.568;2024-01-15T03:44:23;26.80;;;15.32;;
67902;SDS011;54708;43.612;1.568;2024-01-15T03:46:48;26.35;;;16.80;;
67902;SDS011;54708;43.612;1.568;2024-01-15T03:49:14;26.27;;;15.60;;
67902;SDS011;54708;43.612;1.568;2024-01-15T03:51:39;27.83;;;15.02;;
67902;SDS011;54708;43.612;1.568;2024-01-15T03:54:04;30.35;;;16.63;;
67902;SDS011;54708;43.612;1.568;2024-01-15T03:56:30;29.05;;;16.27;;
67902;SDS011;54708;43.612;1.568;2024-01-15T03:58:55;32.35;;;15.55;;
67902;SDS011;54708;43.612;1.568;2024-01-15T04:01:20;29.50;;;16.80;;
67902;SDS011;54708;43.612;1.568;2024-01-15T04:03:46;28.55;;;16.85;;
67902;SDS011;54708;43.612;1.568;2024-01-15T04:06:11;26.75;;;14.27;;
67902;SDS011;54708;43.612;1.568;2024-01-15T04:08:36;30.98;;;15.70;;
67902;SDS011;54708;43.612;1.568;2024-01-15T04:11:02;31.52;;;17.92;;
67902;SDS011;54708;43.612;1.568;2024-01-15T04:13:27;25.92;;;15.57;;
67902;SDS011;54708;43.612;1.568;2024-01-15T04:15:53;29.27;;;16.17;;
67902;SDS011;54708;43.612;1.568;2024-01-15T04:18:18;28.52;;;14.43;;
67902;SDS011;54708;43.612;1.568;2024-01-15T04:20:43;29.15;;;17.25;;
67902;SDS011;54708;43.612;1.568;2024-01-15T04:23:09;37.20;;;16.92;;
67902;SDS011;54708;43.612;1.568;2024-01-15T04:25:34;41.75;;;17.88;;
67902;SDS011;54708;43.612;1.568;2024-01-15T04:28:00;39.80;;;17.42;;
67902;SDS011;54708;43.612;1.568;2024-01-15T04:30:25;49.40;;;20.05;;
67902;SDS011;54708;43.612;1.568;2024-01-15T04:32:51;41.65;;;18.63;;
67902;SDS011;54708;43.612;1.568;2024-01-15T04:35:16;53.35;;;21.75;;
67902;SDS011;54708;43.612;1.568;2024-01-15T04:37:42;41.85;;;18.77;;
67902;SDS011;54708;43.612;1.568;2024-01-15T04:40:07;50.80;;;20.48;;
67902;SDS011;54708;43.612;1.568;2024-01-15T04:42:33;39.70;;;17.77;;
67902;SDS011;54708;43.612;1.568;2024-01-15T04:44:59;51.90;;;20.85;;
67902;SDS011;54708;43.612;1.568;2024-01-15T04:47:24;50.05;;;18.17;;
67902;SDS011;54708;43.612;1.568;2024-01-15T04:49:49;54.15;;;21.70;;
67902;SDS011;54708;43.612;1.568;2024-01-15T04:52:15;43.17;;;19.35;;
67902;SDS011;54708;43.612;1.568;2024-01-15T04:54:40;43.20;;;18.13;;
67902;SDS011;54708;43.612;1.568;2024-01-15T04:57:06;46.50;;;20.55;;
67902;SDS011;54708;43.612;1.568;2024-01-15T04:59:31;49.35;;;21.45;;
67902;SDS011;54708;43.612;1.568;2024-01-15T05:01:57;48.30;;;18.55;;
67902;SDS011;54708;43.612;1.568;2024-01-15T05:04:22;42.90;;;19.45;;
67902;SDS011;54708;43.612;1.568;2024-01-15T05:06:49;49.65;;;18.20;;
67902;SDS011;54708;43.612;1.568;2024-01-15T05:09:14;40.75;;;16.45;;
67902;SDS011;54708;43.612;1.568;2024-01-15T05:11:40;36.00;;;17.35;;
67902;SDS011;54708;43.612;1.568;2024-01-15T05:14:05;53.92;;;18.52;;
67902;SDS011;54708;43.612;1.568;2024-01-15T05:16:30;46.13;;;20.88;;
67902;SDS011;54708;43.612;1.568;2024-01-15T05:18:56;39.22;;;17.27;;
67902;SDS011;54708;43.612;1.568;2024-01-15T05:21:21;57.50;;;22.13;;
67902;SDS011;54708;43.612;1.568;2024-01-15T05:23:46;151.07;;;38.85;;
67902;SDS011;54708;43.612;1.568;2024-01-15T05:26:12;85.40;;;31.13;;
67902;SDS011;54708;43.612;1.568;2024-01-15T05:28:37;53.97;;;23.20;;
67902;SDS011;54708;43.612;1.568;2024-01-15T05:31:03;41.20;;;18.60;;
67902;SDS011;54708;43.612;1.568;2024-01-15T05:33:29;53.95;;;17.17;;
67902;SDS011;54708;43.612;1.568;2024-01-15T05:35:54;30.88;;;15.95;;
67902;SDS011;54708;43.612;1.568;2024-01-15T05:38:20;52.00;;;17.50;;
67902;SDS011;54708;43.612;1.568;2024-01-15T05:40:45;37.97;;;16.35;;
67902;SDS011;54708;43.612;1.568;2024-01-15T05:43:11;47.88;;;16.17;;
67902;SDS011;54708;43.612;1.568;2024-01-15T05:45:37;39.80;;;18.38;;
67902;SDS011;54708;43.612;1.568;2024-01-15T05:48:03;33.10;;;14.90;;
67902;SDS011;54708;43.612;1.568;2024-01-15T05:50:29;36.13;;;15.80;;
67902;SDS011;54708;43.612;1.568;2024-01-15T05:52:54;45.13;;;16.80;;
67902;SDS011;54708;43.612;1.568;2024-01-15T05:55:20;55.15;;;17.55;;
67902;SDS011;54708;43.612;1.568;2024-01-15T05:57:45;48.97;;;17.80;;
67902;SDS011;54708;43.612;1.568;2024-01-15T06:00:11;94.28;;;23.27;;
67902;SDS011;54708;43.612;1.568;2024-01-15T06:02:37;45.35;;;16.92;;
67902;SDS011;54708;43.612;1.568;2024-01-15T06:05:03;55.47;;;18.33;;
67902;SDS011;54708;43.612;1.568;2024-01-15T06:07:29;33.40;;;15.50;;
67902;SDS011;54708;43.612;1.568;2024-01-15T06:09:54;43.42;;;16.52;;
67902;SDS011;54708;43.612;1.568;2024-01-15T06:12:22;43.90;;;15.80;;
67902;SDS011;54708;43.612;1.568;2024-01-15T06:14:47;42.17;;;18.25;;
67902;SDS011;54708;43.612;1.568;2024-01-15T06:17:12;59.70;;;20.13;;
67902;SDS011;54708;43.612;1.568;2024-01-15T06:19:38;47.88;;;18.65;;
67902;SDS011;54708;43.612;1.568;2024-01-15T06:22:03;51.42;;;17.95;;
67902;SDS011;54708;43.612;1.568;2024-01-15T06:24:29;109.18;;;25.45;;
67902;SDS011;54708;43.612;1.568;2024-01-15T06:26:54;63.08;;;19.27;;
67902;SDS011;54708;43.612;1.568;2024-01-15T06:29:19;69.82;;;20.52;;
67902;SDS011;54708;43.612;1.568;2024-01-15T06:31:45;77.65;;;18.77;;
67902;SDS011;54708;43.612;1.568;2024-01-15T06:34:10;37.75;;;16.33;;
67902;SDS011;54708;43.612;1.568;2024-01-15T06:36:35;43.78;;;17.70;;
67902;SDS011;54708;43.612;1.568;2024-01-15T06:39:01;56.00;;;19.55;;
67902;SDS011;54708;43.612;1.568;2024-01-15T06:41:27;57.63;;;21.42;;
67902;SDS011;54708;43.612;1.568;2024-01-15T06:43:52;65.53;;;21.38;;
67902;SDS011;54708;43.612;1.568;2024-01-15T06:46:21;68.68;;;23.15;;
67902;SDS011;54708;43.612;1.568;2024-01-15T06:48:47;122.97;;;22.98;;
67902;SDS011;54708;43.612;1.568;2024-01-15T06:51:12;76.82;;;22.63;;
67902;SDS011;54708;43.612;1.568;2024-01-15T06:53:38;69.97;;;20.23;;
67902;SDS011;54708;43.612;1.568;2024-01-15T06:56:03;68.05;;;21.65;;
67902;SDS011;54708;43.612;1.568;2024-01-15T06:58:30;69.78;;;21.17;;
67902;SDS011;54708;43.612;1.568;2024-01-15T07:00:56;61.75;;;18.63;;
67902;SDS011;54708;43.612;1.568;2024-01-15T07:03:21;85.05;;;21.88;;
67902;SDS011;54708;43.612;1.568;2024-01-15T07:05:47;59.63;;;20.42;;
67902;SDS011;54708;43.612;1.568;2024-01-15T07:08:12;43.95;;;18.33;;
67902;SDS011;54708;43.612;1.568;2024-01-15T07:10:38;49.10;;;17.77;;
67902;SDS011;54708;43.612;1.568;2024-01-15T07:13:03;70.50;;;20.00;;
67902;SDS011;54708;43.612;1.568;2024-01-15T07:15:30;73.63;;;20.05;;
67902;SDS011;54708;43.612;1.568;2024-01-15T07:17:55;61.67;;;18.48;;
67902;SDS011;54708;43.612;1.568;2024-01-15T07:20:21;52.65;;;18.83;;
67902;SDS011;54708;43.612;1.568;2024-01-15T07:22:47;43.13;;;17.38;;
67902;SDS011;54708;43.612;1.568;2024-01-15T07:25:12;46.45;;;17.05;;
67902;SDS011;54708;43.612;1.568;2024-01-15T07:27:37;55.20;;;17.83;;
67902;SDS011;54708;43.612;1.568;2024-01-15T07:30:03;57.92;;;19.90;;
67902;SDS011;54708;43.612;1.568;2024-01-15T07:32:30;61.67;;;20.08;;
67902;SDS011;54708;43.612;1.568;2024-01-15T07:34:56;39.20;;;17.88;;
67902;SDS011;54708;43.612;1.568;2024-01-15T07:37:21;52.28;;;19.42;;
67902;SDS011;54708;43.612;1.568;2024-01-15T07:39:48;56.97;;;20.88;;
67902;SDS011;54708;43.612;1.568;2024-01-15T07:42:14;51.13;;;19.90;;
67902;SDS011;54708;43.612;1.568;2024-01-15T07:44:39;79.68;;;22.58;;
67902;SDS011;54708;43.612;1.568;2024-01-15T07:47:05;70.35;;;23.42;;
67902;SDS011;54708;43.612;1.568;2024-01-15T07:49:30;49.85;;;22.00;;
67902;SDS011;54708;43.612;1.568;2024-01-15T07:51:55;69.78;;;27.20;;
67902;SDS011;54708;43.612;1.568;2024-01-15T07:54:21;74.32;;;23.13;;
67902;SDS011;54708;43.612;1.568;2024-01-15T07:56:56;62.33;;;22.45;;
67902;SDS011;54708;43.612;1.568;2024-01-15T07:59:22;61.20;;;24.75;;
67902;SDS011;54708;43.612;1.568;2024-01-15T08:01:48;73.07;;;28.52;;
67902;SDS011;54708;43.612;1.568;2024-01-15T08:04:13;51.45;;;21.23;;
67902;SDS011;54708;43.612;1.568;2024-01-15T08:06:39;50.17;;;20.83;;
67902;SDS011;54708;43.612;1.568;2024-01-15T08:09:04;51.80;;;19.95;;
67902;SDS011;54708;43.612;1.568;2024-01-15T08:11:30;55.80;;;20.38;;
67902;SDS011;54708;43.612;1.568;2024-01-15T08:13:56;60.40;;;20.80;;
67902;SDS011;54708;43.612;1.568;2024-01-15T08:16:22;76.60;;;23.35;;
67902;SDS011;54708;43.612;1.568;2024-01-15T08:18:49;52.78;;;21.63;;
67902;SDS011;54708;43.612;1.568;2024-01-15T08:21:14;52.47;;;20.35;;
67902;SDS011;54708;43.612;1.568;2024-01-15T08:23:40;62.40;;;21.92;;
67902;SDS011;54708;43.612;1.568;2024-01-15T08:26:05;60.83;;;21.08;;
67902;SDS011;54708;43.612;1.568;2024-01-15T08:28:30;51.88;;;21.23;;
67902;SDS011;54708;43.612;1.568;2024-01-15T08:30:56;50.10;;;19.40;;
67902;SDS011;54708;43.612;1.568;2024-01-15T08:33:21;59.47;;;20.60;;
67902;SDS011;54708;43.612;1.568;2024-01-15T08:35:47;63.70;;;20.77;;
67902;SDS011;54708;43.612;1.568;2024-01-15T08:38:13;55.05;;;20.98;;
67902;SDS011;54708;43.612;1.568;2024-01-15T08:40:38;50.35;;;21.48;;
67902;SDS011;54708;43.612;1.568;2024-01-15T08:43:03;60.65;;;23.45;;
67902;SDS011;54708;43.612;1.568;2024-01-15T08:45:29;77.22;;;32.30;;
67902;SDS011;54708;43.612;1.568;2024-01-15T08:47:54;79.57;;;38.45;;
67902;SDS011;54708;43.612;1.568;2024-01-15T08:50:20;64.25;;;29.10;;
67902;SDS011;54708;43.612;1.568;2024-01-15T08:52:45;61.28;;;24.50;;
67902;SDS011;54708;43.612;1.568;2024-01-15T08:55:11;59.80;;;24.50;;
67902;SDS011;54708;43.612;1.568;2024-01-15T08:57:38;62.92;;;28.40;;
67902;SDS011;54708;43.612;1.568;2024-01-15T09:00:03;61.10;;;27.90;;
67902;SDS011;54708;43.612;1.568;2024-01-15T09:02:33;66.22;;;26.42;;
67902;SDS011;54708;43.612;1.568;2024-01-15T09:04:59;60.13;;;23.52;;
67902;SDS011;54708;43.612;1.568;2024-01-15T09:07:24;99.32;;;41.15;;
67902;SDS011;54708;43.612;1.568;2024-01-15T09:09:51;71.95;;;28.52;;
67902;SDS011;54708;43.612;1.568;2024-01-15T09:12:16;69.70;;;26.60;;
67902;SDS011;54708;43.612;1.568;2024-01-15T09:14:43;65.13;;;24.60;;
67902;SDS011;54708;43.612;1.568;2024-01-15T09:17:09;59.72;;;26.13;;
67902;SDS011;54708;43.612;1.568;2024-01-15T09:19:34;66.68;;;23.77;;
67902;SDS011;54708;43.612;1.568;2024-01-15T09:21:59;52.22;;;24.02;;
67902;SDS011;54708;43.612;1.568;2024-01-15T09:24:25;76.13;;;23.88;;
67902;SDS011;54708;43.612;1.568;2024-01-15T09:26:50;57.03;;;21.88;;
67902;SDS011;54708;43.612;1.568;2024-01-15T09:29:16;55.58;;;21.48;;
67902;SDS011;54708;43.612;1.568;2024-01-15T09:31:43;71.78;;;28.60;;
67902;SDS011;54708;43.612;1.568;2024-01-15T09:34:08;69.10;;;24.00;;
67902;SDS011;54708;43.612;1.568;2024-01-15T09:36:38;70.32;;;23.33;;
67902;SDS011;54708;43.612;1.568;2024-01-15T09:39:05;66.88;;;25.05;;
67902;SDS011;54708;43.612;1.568;2024-01-15T09:41:33;70.80;;;28.90;;
67902;SDS011;54708;43.612;1.568;2024-01-15T09:44:00;64.88;;;25.30;;
67902;SDS011;54708;43.612;1.568;2024-01-15T09:46:25;62.97;;;25.60;;
67902;SDS011;54708;43.612;1.568;2024-01-15T09:48:51;57.75;;;24.80;;
67902;SDS011;54708;43.612;1.568;2024-01-15T09:51:17;57.15;;;24.95;;
67902;SDS011;54708;43.612;1.568;2024-01-15T09:53:42;56.72;;;21.90;;
67902;SDS011;54708;43.612;1.568;2024-01-15T09:56:08;45.70;;;21.38;;
67902;SDS011;54708;43.612;1.568;2024-01-15T09:58:35;50.72;;;21.73;;
67902;SDS011;54708;43.612;1.568;2024-01-15T10:01:03;65.65;;;36.45;;
67902;SDS011;54708;43.612;1.568;2024-01-15T10:03:28;72.93;;;36.15;;
67902;SDS011;54708;43.612;1.568;2024-01-15T10:05:54;57.45;;;26.00;;
67902;SDS011;54708;43.612;1.568;2024-01-15T10:08:19;56.78;;;22.05;;
67902;SDS011;54708;43.612;1.568;2024-01-15T10:10:45;45.95;;;18.88;;
67902;SDS011;54708;43.612;1.568;2024-01-15T10:13:10;37.50;;;18.90;;
67902;SDS011;54708;43.612;1.568;2024-01-15T10:15:37;55.17;;;21.10;;
67902;SDS011;54708;43.612;1.568;2024-01-15T10:18:03;51.85;;;21.25;;
67902;SDS011;54708;43.612;1.568;2024-01-15T10:20:31;49.40;;;21.30;;
67902;SDS011;54708;43.612;1.568;2024-01-15T10:22:57;48.22;;;22.05;;
67902;SDS011;54708;43.612;1.568;2024-01-15T10:25:22;52.83;;;21.38;;
67902;SDS011;54708;43.612;1.568;2024-01-15T10:28:00;53.97;;;25.13;;
67902;SDS011;54708;43.612;1.568;2024-01-15T10:30:26;50.85;;;23.20;;
67902;SDS011;54708;43.612;1.568;2024-01-15T10:32:59;62.17;;;24.10;;
67902;SDS011;54708;43.612;1.568;2024-01-15T10:35:35;74.20;;;25.65;;
67902;SDS011;54708;43.612;1.568;2024-01-15T10:38:01;57.22;;;24.25;;
67902;SDS011;54708;43.612;1.568;2024-01-15T10:40:26;47.05;;;20.52;;
67902;SDS011;54708;43.612;1.568;2024-01-15T10:42:52;56.75;;;24.88;;
67902;SDS011;54708;43.612;1.568;2024-01-15T10:45:18;78.35;;;38.08;;
67902;SDS011;54708;43.612;1.568;2024-01-15T10:47:45;64.00;;;27.60;;
67902;SDS011;54708;43.612;1.568;2024-01-15T10:50:11;51.60;;;19.95;;
67902;SDS011;54708;43.612;1.568;2024-01-15T10:52:37;48.78;;;20.42;;
67902;SDS011;54708;43.612;1.568;2024-01-15T10:55:03;38.17;;;19.38;;
67902;SDS011;54708;43.612;1.568;2024-01-15T10:57:29;42.40;;;19.70;;
67902;SDS011;54708;43.612;1.568;2024-01-15T10:59:55;58.13;;;28.95;;
67902;SDS011;54708;43.612;1.568;2024-01-15T11:02:20;53.83;;;26.98;;
67902;SDS011;54708;43.612;1.568;2024-01-15T11:04:46;37.50;;;18.63;;
67902;SDS011;54708;43.612;1.568;2024-01-15T11:07:11;46.47;;;19.35;;
67902;SDS011;54708;43.612;1.568;2024-01-15T11:09:38;44.60;;;22.85;;
67902;SDS011;54708;43.612;1.568;2024-01-15T11:12:07;67.97;;;36.20;;
67902;SDS011;54708;43.612;1.568;2024-01-15T11:17:03;41.30;;;21.48;;
67902;SDS011;54708;43.612;1.568;2024-01-15T11:20:05;48.25;;;22.52;;
67902;SDS011;54708;43.612;1.568;2024-01-15T11:24:57;50.72;;;24.23;;
67902;SDS011;54708;43.612;1.568;2024-01-15T11:27:47;50.20;;;23.30;;
67902;SDS011;54708;43.612;1.568;2024-01-15T11:30:12;39.25;;;20.27;;
67902;SDS011;54708;43.612;1.568;2024-01-15T11:32:39;46.75;;;23.13;;
67902;SDS011;54708;43.612;1.568;2024-01-15T11:35:08;43.55;;;20.20;;
67902;SDS011;54708;43.612;1.568;2024-01-15T11:40:17;36.20;;;22.35;;
67902;SDS011;54708;43.612;1.568;2024-01-15T11:42:47;50.38;;;23.10;;
67902;SDS011;54708;43.612;1.568;2024-01-15T11:45:18;46.20;;;25.02;;
67902;SDS011;54708;43.612;1.568;2024-01-15T11:47:55;38.90;;;21.20;;
67902;SDS011;54708;43.612;1.568;2024-01-15T11:50:37;44.85;;;21.10;;
67902;SDS011;54708;43.612;1.568;2024-01-15T11:53:06;42.22;;;19.80;;
67902;SDS011;54708;43.612;1.568;2024-01-15T11:55:46;36.88;;;19.77;;
67902;SDS011;54708;43.612;1.568;2024-01-15T11:58:13;40.25;;;19.85;;
67902;SDS011;54708;43.612;1.568;2024-01-15T12:00:42;43.17;;;23.60;;
67902;SDS011;54708;43.612;1.568;2024-01-15T12:03:09;39.33;;;24.38;;
67902;SDS011;54708;43.612;1.568;2024-01-15T12:05:36;39.03;;;24.77;;
67902;SDS011;54708;43.612;1.568;2024-01-15T12:08:02;29.00;;;19.83;;
67902;SDS011;54708;43.612;1.568;2024-01-15T12:10:27;31.52;;;17.63;;
67902;SDS011;54708;43.612;1.568;2024-01-15T12:13:27;33.58;;;19.55;;
67902;SDS011;54708;43.612;1.568;2024-01-15T12:15:46;31.80;;;17.85;;
67902;SDS011;54708;43.612;1.568;2024-01-15T12:18:13;30.70;;;17.88;;
67902;SDS011;54708;43.612;1.568;2024-01-15T12:20:40;35.72;;;20.58;;
67902;SDS011;54708;43.612;1.568;2024-01-15T12:23:07;38.67;;;21.67;;
67902;SDS011;54708;43.612;1.568;2024-01-15T12:25:33;32.63;;;19.10;;
67902;SDS011;54708;43.612;1.568;2024-01-15T12:27:59;33.63;;;17.83;;
67902;SDS011;54708;43.612;1.568;2024-01-15T12:30:28;31.23;;;17.17;;
67902;SDS011;54708;43.612;1.568;2024-01-15T12:32:56;30.77;;;18.00;;
67902;SDS011;54708;43.612;1.568;2024-01-15T12:35:23;33.50;;;19.88;;
67902;SDS011;54708;43.612;1.568;2024-01-15T12:37:49;28.70;;;17.05;;
67902;SDS011;54708;43.612;1.568;2024-01-15T12:40:18;36.60;;;21.63;;
67902;SDS011;54708;43.612;1.568;2024-01-15T12:42:44;33.75;;;17.63;;
67902;SDS011;54708;43.612;1.568;2024-01-15T12:45:10;27.40;;;17.73;;
67902;SDS011;54708;43.612;1.568;2024-01-15T12:47:37;31.30;;;16.50;;
67902;SDS011;54708;43.612;1.568;2024-01-15T12:50:06;31.08;;;17.95;;
67902;SDS011;54708;43.612;1.568;2024-01-15T12:52:34;31.23;;;18.27;;
67902;SDS011;54708;43.612;1.568;2024-01-15T12:55:00;32.15;;;19.40;;
67902;SDS011;54708;43.612;1.568;2024-01-15T12:57:25;32.28;;;18.45;;
67902;SDS011;54708;43.612;1.568;2024-01-15T12:59:51;26.35;;;16.65;;
67902;SDS011;54708;43.612;1.568;2024-01-15T13:02:16;32.22;;;19.90;;
67902;SDS011;54708;43.612;1.568;2024-01-15T13:04:41;26.90;;;19.48;;
67902;SDS011;54708;43.612;1.568;2024-01-15T13:07:07;26.08;;;17.55;;
67902;SDS011;54708;43.612;1.568;2024-01-15T13:09:33;26.77;;;17.00;;
67902;SDS011;54708;43.612;1.568;2024-01-15T13:11:59;23.92;;;15.75;;
67902;SDS011;54708;43.612;1.568;2024-01-15T13:14:25;23.95;;;15.77;;
67902;SDS011;54708;43.612;1.568;2024-01-15T13:16:50;30.73;;;16.42;;
67902;SDS011;54708;43.612;1.568;2024-01-15T13:19:16;32.28;;;17.35;;
67902;SDS011;54708;43.612;1.568;2024-01-15T13:21:42;28.77;;;17.00;;
67902;SDS011;54708;43.612;1.568;2024-01-15T13:24:07;34.35;;;19.90;;
67902;SDS011;54708;43.612;1.568;2024-01-15T13:26:33;37.17;;;20.58;;
67902;SDS011;54708;43.612;1.568;2024-01-15T13:29:05;38.30;;;20.55;;
67902;SDS011;54708;43.612;1.568;2024-01-15T13:31:31;42.67;;;23.80;;
67902;SDS011;54708;43.612;1.568;2024-01-15T13:33:59;40.80;;;23.25;;
67902;SDS011;54708;43.612;1.568;2024-01-15T13:36:25;37.38;;;22.33;;
67902;SDS011;54708;43.612;1.568;2024-01-15T13:38:51;45.53;;;24.52;;
67902;SDS011;54708;43.612;1.568;2024-01-15T13:41:20;36.15;;;21.08;;
67902;SDS011;54708;43.612;1.568;2024-01-15T13:43:52;33.63;;;20.60;;
67902;SDS011;54708;43.612;1.568;2024-01-15T13:46:19;32.55;;;18.20;;
67902;SDS011;54708;43.612;1.568;2024-01-15T13:48:45;35.58;;;20.27;;
67902;SDS011;54708;43.612;1.568;2024-01-15T13:51:10;25.42;;;16.52;;
67902;SDS011;54708;43.612;1.568;2024-01-15T13:53:37;27.73;;;17.23;;
67902;SDS011;54708;43.612;1.568;2024-01-15T13:56:03;29.75;;;17.67;;
67902;SDS011;54708;43.612;1.568;2024-01-15T13:58:29;27.73;;;17.20;;
67902;SDS011;54708;43.612;1.568;2024-01-15T14:00:55;29.48;;;17.88;;
67902;SDS011;54708;43.612;1.568;2024-01-15T14:03:20;33.97;;;20.48;;
67902;SDS011;54708;43.612;1.568;2024-01-15T14:05:46;36.00;;;21.65;;
67902;SDS011;54708;43.612;1.568;2024-01-15T14:08:11;38.78;;;22.25;;
67902;SDS011;54708;43.612;1.568;2024-01-15T14:10:36;40.05;;;23.55;;
67902;SDS011;54708;43.612;1.568;2024-01-15T14:13:02;39.92;;;24.48;;
67902;SDS011;54708;43.612;1.568;2024-01-15T14:15:28;41.17;;;23.38;;
67902;SDS011;54708;43.612;1.568;2024-01-15T14:17:54;38.72;;;23.73;;
67902;SDS011;54708;43.612;1.568;2024-01-15T14:20:19;34.25;;;21.75;;
67902;SDS011;54708;43.612;1.568;2024-01-15T14:22:44;37.45;;;24.50;;